createdAt,value
2023-02-11T00:01:28.947Z,98917.09
2023-02-11T00:03:56.602Z,98915.88
2023-02-11T00:06:24.187Z,98917.72
2023-02-11T00:08:50.943Z,98886.16
2023-02-11T00:11:20.656Z,98921.03
2023-02-11T00:13:48.174Z,98904.81
2023-02-11T00:16:17.789Z,98919.63
2023-02-11T00:18:45.544Z,98917.75
2023-02-11T00:21:17.858Z,98922.28
2023-02-11T00:23:49.167Z,98902.56
2023-02-11T00:26:24.803Z,98919.19
2023-02-11T00:28:52.234Z,98911.59
2023-02-11T00:31:20.754Z,98894.19
2023-02-11T00:33:48.129Z,98884.31
2023-02-11T00:36:22.490Z,98880.22
2023-02-11T00:38:50.851Z,98873.06
2023-02-11T00:41:18.508Z,98865.88
2023-02-11T00:43:45.301Z,98831.03
2023-02-11T00:46:12.097Z,98837.84
2023-02-11T00:48:41.816Z,98869.16
2023-02-11T00:51:08.804Z,98872.25
2023-02-11T00:53:35.678Z,98865.28
2023-02-11T00:56:02.682Z,98862.59
2023-02-11T00:58:30.929Z,98857.50
2023-02-11T01:00:58.607Z,98845.59
2023-02-11T01:03:25.428Z,98826.31
2023-02-11T01:05:52.581Z,98831.03
2023-02-11T01:08:19.906Z,98829.59
2023-02-11T01:10:54.389Z,98824.63
2023-02-11T01:13:20.987Z,98832.00
2023-02-11T01:15:47.833Z,98808.63
2023-02-11T01:18:14.628Z,98807.56
2023-02-11T01:20:41.217Z,98777.25
2023-02-11T01:23:07.959Z,98763.88
2023-02-11T01:25:34.591Z,98753.19
2023-02-11T01:28:01.181Z,98747.03
2023-02-11T01:30:27.827Z,98750.31
2023-02-11T01:32:54.568Z,98758.13
2023-02-11T01:35:21.152Z,98749.50
2023-02-11T01:37:47.749Z,98739.50
2023-02-11T01:40:16.980Z,98770.84
2023-02-11T01:42:44.620Z,98776.81
2023-02-11T01:45:42.242Z,98790.59
2023-02-11T01:48:12.761Z,98777.88
2023-02-11T01:50:41.339Z,98777.91
2023-02-11T01:53:28.159Z,98783.00
2023-02-11T01:56:14.437Z,98800.03
2023-02-11T01:58:44.590Z,98789.97
2023-02-11T02:01:16.066Z,98802.47
2023-02-11T02:03:46.807Z,98787.31
2023-02-11T02:06:19.637Z,98789.13
2023-02-11T02:09:01.288Z,98775.38
2023-02-11T02:11:28.193Z,98761.44
2023-02-11T02:13:54.822Z,98780.47
2023-02-11T02:16:24.853Z,98767.16
2023-02-11T02:19:16.517Z,98765.66
2023-02-11T02:22:33.420Z,98768.94
2023-02-11T02:25:08.964Z,98752.72
2023-02-11T02:27:55.976Z,98747.75
2023-02-11T02:30:49.883Z,98735.44
2023-02-11T02:33:23.117Z,98723.06
2023-02-11T02:36:03.119Z,98694.59
2023-02-11T02:38:48.967Z,98685.72
2023-02-11T02:41:21.189Z,98695.09
2023-02-11T02:43:51.587Z,98687.28
2023-02-11T02:46:23.839Z,98680.25
2023-02-11T02:48:52.984Z,98679.63
2023-02-11T02:51:39.918Z,98677.56
2023-02-11T02:54:34.216Z,98657.00
2023-02-11T02:57:19.204Z,98667.88
2023-02-11T03:00:04.454Z,98663.72
2023-02-11T03:02:46.306Z,98637.53
2023-02-11T03:05:23.821Z,98660.41
2023-02-11T03:08:19.746Z,98652.03
2023-02-11T03:10:51.479Z,98596.09
2023-02-11T03:13:22.550Z,98635.94
2023-02-11T03:15:53.628Z,98615.22
2023-02-11T03:18:26.255Z,98616.09
2023-02-11T03:20:54.997Z,98624.28
2023-02-11T03:23:34.758Z,98608.09
2023-02-11T03:26:30.177Z,98632.44
2023-02-11T03:29:14.116Z,98619.50
2023-02-11T03:31:53.685Z,98596.81
2023-02-11T03:34:57.610Z,98606.91
2023-02-11T03:37:35.722Z,98611.81
2023-02-11T03:40:10.384Z,98591.19
2023-02-11T03:42:53.359Z,98609.59
2023-02-11T03:45:22.569Z,98590.13
2023-02-11T03:47:55.723Z,98610.13
2023-02-11T03:50:24.327Z,98604.78
2023-02-11T03:52:51.725Z,98594.31
2023-02-11T03:55:20.834Z,98546.22
2023-02-11T03:57:48.188Z,98578.00
2023-02-11T04:00:15.524Z,98549.94
2023-02-11T04:02:42.417Z,98562.56
2023-02-11T04:05:12.535Z,98572.94
2023-02-11T04:07:39.163Z,98546.44
2023-02-11T04:10:08.494Z,98523.66
2023-02-11T04:12:35.160Z,98520.53
2023-02-11T04:15:01.678Z,98521.50
2023-02-11T04:17:28.403Z,98498.59
2023-02-11T04:19:55.115Z,98486.25
2023-02-11T04:22:21.832Z,98491.28
2023-02-11T04:24:48.772Z,98497.38
2023-02-11T04:27:15.412Z,98534.91
2023-02-11T04:29:42.975Z,98532.56
2023-02-11T04:32:11.511Z,98539.97
2023-02-11T04:34:38.380Z,98513.56
2023-02-11T04:37:05.231Z,98537.00
2023-02-11T04:39:31.912Z,98501.09
2023-02-11T04:41:58.579Z,98529.22
2023-02-11T04:44:25.285Z,98526.63
2023-02-11T04:46:51.975Z,98517.22
2023-02-11T04:49:18.631Z,98537.59
2023-02-11T04:51:48.239Z,98531.19
2023-02-11T04:54:16.286Z,98509.31
2023-02-11T04:56:42.954Z,98515.41
2023-02-11T04:59:09.640Z,98493.66
2023-02-11T05:01:36.402Z,98495.59
2023-02-11T05:04:03.115Z,98510.34
2023-02-11T05:06:29.778Z,98488.69
2023-02-11T05:08:56.684Z,98481.34
2023-02-11T05:11:25.214Z,98505.97
2023-02-11T05:13:52.303Z,98509.69
2023-02-11T05:16:19.141Z,98518.28
2023-02-11T05:18:46.747Z,98502.56
2023-02-11T05:21:17.352Z,98514.44
2023-02-11T05:23:44.535Z,98527.94
2023-02-11T05:26:12.922Z,98535.38
2023-02-11T05:28:39.929Z,98528.97
2023-02-11T05:31:08.012Z,98537.38
2023-02-11T05:33:34.661Z,98504.06
2023-02-11T05:36:07.675Z,98535.75
2023-02-11T05:38:35.016Z,98532.25
2023-02-11T05:41:01.923Z,98523.63
2023-02-11T05:43:28.593Z,98512.94
2023-02-11T05:45:55.442Z,98491.44
2023-02-11T05:48:22.024Z,98482.63
2023-02-11T05:50:49.605Z,98458.09
2023-02-11T05:53:17.408Z,98423.06
2023-02-11T05:55:44.089Z,98429.03
2023-02-11T05:58:10.776Z,98355.38
2023-02-11T06:00:37.865Z,98404.41
2023-02-11T06:03:05.110Z,98407.00
2023-02-11T06:05:32.215Z,98413.38
2023-02-11T06:07:59.228Z,98406.59
2023-02-11T06:10:26.120Z,98397.88
2023-02-11T06:12:52.639Z,98398.59
2023-02-11T06:15:19.264Z,98391.72
2023-02-11T06:17:46.000Z,98389.72
2023-02-11T06:20:12.585Z,98404.63
2023-02-11T06:22:39.221Z,98407.91
2023-02-11T06:25:06.383Z,98401.00
2023-02-11T06:27:33.081Z,98415.56
2023-02-11T06:30:00.271Z,98433.47
2023-02-11T06:32:43.748Z,98426.16
2023-02-11T06:35:12.448Z,98423.81
2023-02-11T06:37:39.852Z,98434.06
2023-02-11T06:40:06.923Z,98431.16
2023-02-11T06:42:34.730Z,98418.94
2023-02-11T06:45:01.435Z,98444.44
2023-02-11T06:47:27.959Z,98437.00
2023-02-11T06:49:54.518Z,98402.66
2023-02-11T06:52:21.232Z,98426.41
2023-02-11T06:54:47.891Z,98464.59
2023-02-11T06:57:14.654Z,98464.13
2023-02-11T06:59:41.377Z,98437.72
2023-02-11T07:02:11.046Z,98448.06
2023-02-11T07:04:38.088Z,98472.78
2023-02-11T07:07:04.844Z,98473.84
2023-02-11T07:24:02.727Z,98432.22
2023-02-11T07:26:29.353Z,98437.31
2023-02-11T07:28:56.008Z,98442.06
2023-02-11T07:31:28.839Z,98438.09
2023-02-11T07:36:43.807Z,98377.09
2023-02-11T07:39:11.085Z,98437.34
2023-02-11T07:41:40.356Z,98336.94
2023-02-11T07:44:07.468Z,98384.19
2023-02-11T07:46:35.996Z,98370.53
2023-02-11T07:49:05.213Z,98431.13
2023-02-11T07:51:32.052Z,98402.94
2023-02-11T07:54:00.905Z,98395.44
2023-02-11T07:56:28.970Z,98384.06
2023-02-11T07:58:57.151Z,98375.03
2023-02-11T08:01:28.584Z,98371.75
2023-02-11T08:04:05.006Z,98349.25
2023-02-11T08:06:36.230Z,98355.84
2023-02-11T08:09:15.296Z,98321.56
2023-02-11T08:11:42.408Z,98302.88
2023-02-11T08:14:09.844Z,98405.28
2023-02-11T08:16:58.417Z,98398.59
2023-02-11T08:19:30.512Z,98370.56
2023-02-11T08:22:06.695Z,98330.31
2023-02-11T08:24:42.614Z,98264.50
2023-02-11T08:27:11.944Z,98262.66
2023-02-11T08:30:05.521Z,98322.09
2023-02-11T08:32:34.863Z,98373.44
2023-02-11T08:35:01.772Z,98366.00
2023-02-11T08:37:29.162Z,98356.50
2023-02-11T08:39:56.978Z,98338.34
2023-02-11T08:42:23.596Z,98324.09
2023-02-11T08:44:50.242Z,98313.16
2023-02-11T08:47:16.864Z,98292.91
2023-02-11T08:49:43.647Z,98325.16
2023-02-11T08:52:10.446Z,98314.03
2023-02-11T08:54:38.150Z,98346.22
2023-02-11T08:57:05.465Z,98265.47
2023-02-11T08:59:32.105Z,98282.94
2023-02-11T09:01:58.785Z,98328.59
2023-02-11T09:04:26.555Z,98330.03
2023-02-11T09:06:53.194Z,98330.03
2023-02-11T09:09:20.146Z,98353.22
2023-02-11T09:11:46.835Z,98313.78
2023-02-11T09:14:21.928Z,98347.56
2023-02-11T09:16:49.096Z,98357.47
2023-02-11T09:19:20.972Z,98340.59
2023-02-11T09:21:49.179Z,98383.34
2023-02-11T09:24:15.979Z,98399.66
2023-02-11T09:26:53.537Z,98409.91
2023-02-11T09:29:20.195Z,98386.03
2023-02-11T09:31:46.897Z,98420.09
2023-02-11T09:34:16.349Z,98370.28
2023-02-11T09:36:43.068Z,98376.34
2023-02-11T09:39:14.578Z,98349.91
2023-02-11T09:41:54.884Z,98407.91
2023-02-11T09:44:27.199Z,98372.28
2023-02-11T09:47:17.031Z,98394.47
2023-02-11T09:49:57.376Z,98382.78
2023-02-11T09:52:35.748Z,98388.56
2023-02-11T09:55:05.819Z,98380.06
2023-02-11T09:57:35.556Z,98360.22
2023-02-11T10:00:16.161Z,98372.69
2023-02-11T10:02:55.510Z,98365.72
2023-02-11T10:05:57.571Z,98369.00
2023-02-11T10:08:44.128Z,98371.53
2023-02-11T10:11:30.623Z,98344.88
2023-02-11T10:14:39.948Z,98376.50
2023-02-11T10:17:27.758Z,98367.19
2023-02-11T10:20:07.812Z,98362.28
2023-02-11T10:22:40.368Z,98332.38
2023-02-11T10:25:40.674Z,98315.22
2023-02-11T10:28:32.915Z,98312.91
2023-02-11T10:31:10.591Z,98299.25
2023-02-11T10:34:12.951Z,98286.34
2023-02-11T10:36:45.518Z,98279.03
2023-02-11T10:39:19.313Z,98279.28
2023-02-11T10:42:13.193Z,98263.88
2023-02-11T10:44:59.750Z,98250.72
2023-02-11T10:47:32.886Z,98237.34
2023-02-11T10:50:03.676Z,98217.44
2023-02-11T10:52:30.876Z,98207.56
2023-02-11T10:55:01.222Z,98184.94
2023-02-11T10:57:44.682Z,98183.88
2023-02-11T11:00:29.400Z,98193.34
2023-02-11T11:02:58.911Z,98194.69
2023-02-11T11:05:38.216Z,98200.63
2023-02-11T11:08:07.769Z,98215.97
2023-02-11T11:10:43.726Z,98214.34
2023-02-11T11:13:35.667Z,98224.28
2023-02-11T11:16:16.804Z,98208.56
2023-02-11T11:18:49.264Z,98247.38
2023-02-11T11:21:29.039Z,98246.75
2023-02-11T11:24:01.347Z,98237.22
2023-02-11T11:26:41.439Z,98217.16
2023-02-11T11:29:16.278Z,98236.34
2023-02-11T11:31:57.114Z,98254.09
2023-02-11T11:34:50.271Z,98248.41
2023-02-11T11:37:25.265Z,98244.41
2023-02-11T11:40:07.779Z,98225.81
2023-02-11T11:42:37.466Z,98231.28
2023-02-11T11:45:27.189Z,98207.28
2023-02-11T11:48:22.639Z,98236.41
2023-02-11T11:51:02.091Z,98204.16
2023-02-11T11:53:40.812Z,98228.13
2023-02-11T11:56:21.969Z,98235.34
2023-02-11T11:58:54.510Z,98227.22
2023-02-11T12:01:52.187Z,98239.31
2023-02-11T12:04:36.951Z,98238.50
2023-02-11T12:07:06.519Z,98232.09
2023-02-11T12:10:08.672Z,98231.03
2023-02-11T12:13:00.651Z,98247.69
2023-02-11T12:15:39.343Z,98237.19
2023-02-11T12:18:25.931Z,98226.44
2023-02-11T12:21:16.862Z,98224.25
2023-02-11T12:24:08.386Z,98220.72
2023-02-11T12:26:34.929Z,98221.47
2023-02-11T12:29:19.986Z,98210.69
2023-02-11T12:32:13.322Z,98211.97
2023-02-11T12:35:12.520Z,98210.88
2023-02-11T12:38:03.631Z,98197.91
2023-02-11T12:40:45.853Z,98191.13
2023-02-11T12:43:20.538Z,98195.88
2023-02-11T12:46:05.225Z,98199.28
2023-02-11T12:48:34.102Z,98181.59
2023-02-11T12:51:13.081Z,98142.53
2023-02-11T12:53:53.906Z,98071.28
2023-02-11T12:56:42.066Z,98170.66
2023-02-11T12:59:31.240Z,98145.06
2023-02-11T13:02:02.755Z,98180.63
2023-02-11T13:04:37.980Z,98174.97
2023-02-11T13:07:14.481Z,98169.09
2023-02-11T13:09:48.896Z,98162.03
2023-02-11T13:12:35.565Z,98154.84
2023-02-11T13:15:07.132Z,98140.94
2023-02-11T13:17:41.624Z,98131.13
2023-02-11T13:20:23.438Z,98141.97
2023-02-11T13:23:05.598Z,98120.09
2023-02-11T13:25:53.242Z,98062.44
2023-02-11T13:28:29.689Z,98099.25
2023-02-11T13:31:03.150Z,98063.38
2023-02-11T13:33:39.674Z,98094.44
2023-02-11T13:36:06.282Z,98097.66
2023-02-11T13:38:33.748Z,98089.78
2023-02-11T13:41:06.946Z,98100.00
2023-02-11T13:43:36.149Z,98103.16
2023-02-11T13:46:10.236Z,98113.09
2023-02-11T13:48:39.387Z,98102.00
2023-02-11T13:51:17.088Z,98101.19
2023-02-11T13:54:02.690Z,98129.66
2023-02-11T13:56:39.359Z,98135.31
2023-02-11T13:59:30.861Z,98151.91
2023-02-11T14:02:19.220Z,98158.84
2023-02-11T14:05:22.817Z,98170.09
2023-02-11T14:08:31.598Z,98181.34
2023-02-11T14:11:12.552Z,98180.22
2023-02-11T14:13:48.760Z,98181.91
2023-02-11T14:16:35.304Z,98180.72
2023-02-11T14:19:04.455Z,98174.78
2023-02-11T14:21:38.860Z,98177.84
2023-02-11T14:24:07.188Z,98185.91
2023-02-11T14:26:56.141Z,98193.09
2023-02-11T14:29:37.526Z,98176.06
2023-02-11T14:32:41.819Z,98175.28
2023-02-11T14:35:18.871Z,98187.06
2023-02-11T14:38:06.417Z,98158.91
2023-02-11T14:40:52.840Z,98152.19
2023-02-11T14:43:31.418Z,98177.75
2023-02-11T14:46:01.429Z,98144.16
2023-02-11T14:48:39.119Z,98165.22
2023-02-11T14:51:35.057Z,98174.81
2023-02-11T14:54:13.705Z,98164.28
2023-02-11T14:56:44.571Z,98179.63
2023-02-11T14:59:22.921Z,98162.09
2023-02-11T15:01:56.719Z,98156.09
2023-02-11T15:04:28.820Z,98176.91
2023-02-11T15:06:59.857Z,98156.03
2023-02-11T15:09:33.877Z,98187.63
2023-02-11T15:12:07.588Z,98183.06
2023-02-11T15:14:36.619Z,98181.44
2023-02-11T15:17:06.462Z,98177.69
2023-02-11T15:19:38.646Z,98184.03
2023-02-11T15:22:18.749Z,98197.22
2023-02-11T15:24:46.274Z,98195.84
2023-02-11T15:27:16.214Z,98203.88
2023-02-11T15:29:51.970Z,98206.34
2023-02-11T15:32:22.151Z,98189.59
2023-02-11T15:34:51.435Z,98203.38
2023-02-11T15:37:24.565Z,98213.81
2023-02-11T15:39:53.007Z,98201.66
2023-02-11T15:42:52.238Z,98203.34
2023-02-11T15:45:38.581Z,98215.69
2023-02-11T15:48:23.561Z,98220.16
2023-02-11T15:50:54.207Z,98228.28
2023-02-11T15:53:33.382Z,98225.34
2023-02-11T15:56:12.147Z,98221.06
2023-02-11T15:58:43.409Z,98203.53
2023-02-11T16:01:11.453Z,98188.03
2023-02-11T16:03:40.307Z,98219.19
2023-02-11T16:06:17.844Z,98229.13
2023-02-11T16:09:05.720Z,98233.56
2023-02-11T16:11:35.647Z,98232.47
2023-02-11T16:14:21.818Z,98192.69
2023-02-11T16:16:52.991Z,98223.28
2023-02-11T16:19:24.943Z,98225.22
2023-02-11T16:21:55.134Z,98227.09
2023-02-11T16:24:32.470Z,98227.81
2023-02-11T16:27:02.254Z,98208.66
2023-02-11T16:29:36.331Z,98227.81
2023-02-11T16:32:16.103Z,98222.22
2023-02-11T16:34:43.046Z,98206.16
2023-02-11T16:37:09.839Z,98227.78
2023-02-11T16:39:36.706Z,98232.56
2023-02-11T16:42:07.080Z,98235.34
2023-02-11T16:44:34.598Z,98240.69
2023-02-11T16:47:06.150Z,98214.63
2023-02-11T16:49:38.443Z,98248.09
2023-02-11T16:52:13.594Z,98230.81
2023-02-11T16:54:42.236Z,98230.72
2023-02-11T16:57:15.383Z,98245.09
2023-02-11T16:59:42.556Z,98252.13
2023-02-11T17:02:30.769Z,98247.13
2023-02-11T17:05:08.990Z,98246.22
2023-02-11T17:07:35.812Z,98248.78
2023-02-11T17:10:02.508Z,98223.06
2023-02-11T17:12:29.328Z,98258.25
2023-02-11T17:14:56.143Z,98261.47
2023-02-11T17:17:24.056Z,98275.69
2023-02-11T17:19:51.524Z,98270.91
2023-02-11T17:22:18.839Z,98261.47
2023-02-11T17:24:45.677Z,98262.69
2023-02-11T17:27:14.431Z,98269.03
2023-02-11T17:29:41.282Z,98270.59
2023-02-11T17:32:08.104Z,98239.56
2023-02-11T17:34:34.889Z,98266.09
2023-02-11T17:37:07.895Z,98259.28
2023-02-11T17:39:39.207Z,98276.09
2023-02-11T17:42:06.930Z,98240.34
2023-02-11T17:44:34.042Z,98276.31
2023-02-11T17:47:00.688Z,98260.19
2023-02-11T17:49:27.726Z,98269.84
2023-02-11T17:51:55.895Z,98270.41
2023-02-11T17:54:22.631Z,98236.38
2023-02-11T17:56:51.016Z,98191.16
2023-02-11T17:59:17.977Z,98273.91
2023-02-11T18:01:44.961Z,98268.44
2023-02-11T18:04:17.918Z,98269.19
2023-02-11T18:06:45.342Z,98271.31
2023-02-11T18:09:12.378Z,98258.41
2023-02-11T18:11:39.978Z,98230.81
2023-02-11T18:14:08.065Z,98287.22
2023-02-11T18:16:36.860Z,98286.81
2023-02-11T18:19:03.648Z,98274.22
2023-02-11T18:21:31.432Z,98269.41
2023-02-11T18:24:01.147Z,98289.16
2023-02-11T18:26:54.808Z,98295.09
2023-02-11T18:29:21.491Z,98287.31
2023-02-11T18:31:48.138Z,98264.22
2023-02-11T18:34:16.082Z,98301.81
2023-02-11T18:36:43.103Z,98263.25
2023-02-11T18:39:09.934Z,98299.78
2023-02-11T18:41:36.758Z,98290.13
2023-02-11T18:44:05.077Z,98280.63
2023-02-11T18:46:31.886Z,98289.53
2023-02-11T18:48:59.632Z,98300.03
2023-02-11T18:51:26.940Z,98320.59
2023-02-11T18:53:53.845Z,98309.28
2023-02-11T18:56:23.149Z,98317.97
2023-02-11T18:58:51.646Z,98304.41
2023-02-11T19:01:49.479Z,98326.41
2023-02-11T19:04:19.960Z,98324.53
2023-02-11T19:06:49.524Z,98327.28
2023-02-11T19:09:19.531Z,98331.66
2023-02-11T19:11:54.130Z,98329.81
2023-02-11T19:14:26.421Z,98329.28
2023-02-11T19:16:58.028Z,98313.63
2023-02-11T19:19:28.315Z,98328.56
2023-02-11T19:21:55.883Z,98336.84
2023-02-11T19:24:23.508Z,98308.72
2023-02-11T19:26:52.575Z,98334.78
2023-02-11T19:29:19.850Z,98301.53
2023-02-11T19:31:46.903Z,98317.47
2023-02-11T19:34:15.827Z,98337.53
2023-02-11T19:36:43.111Z,98323.03
2023-02-11T19:39:10.577Z,98312.09
2023-02-11T19:41:37.503Z,98331.91
2023-02-11T19:44:05.566Z,98338.41
2023-02-11T19:46:35.345Z,98310.53
2023-02-11T19:49:03.876Z,98328.72
2023-02-11T19:51:32.804Z,98316.28
2023-02-11T19:54:00.475Z,98329.03
2023-02-11T19:56:30.766Z,98326.34
2023-02-11T19:58:58.211Z,98332.78
2023-02-11T20:01:26.010Z,98335.56
2023-02-11T20:03:55.023Z,98310.34
2023-02-11T20:06:25.209Z,98343.13
2023-02-11T20:08:59.679Z,98342.56
2023-02-11T20:11:31.143Z,98326.22
2023-02-11T20:13:59.047Z,98309.53
2023-02-11T20:16:46.176Z,98318.16
2023-02-11T20:19:19.481Z,98319.44
2023-02-11T20:21:48.727Z,98316.88
2023-02-11T20:24:19.185Z,98307.41
2023-02-11T20:26:48.688Z,98344.13
2023-02-11T20:29:17.427Z,98336.31
2023-02-11T20:31:44.318Z,98343.88
2023-02-11T20:34:12.424Z,98338.19
2023-02-11T20:36:40.759Z,98339.06
2023-02-11T20:39:08.486Z,98340.13
2023-02-11T20:41:39.389Z,98346.09
2023-02-11T20:44:08.979Z,98342.88
2023-02-11T20:46:40.068Z,98336.59
2023-02-11T20:49:08.913Z,98355.84
2023-02-11T20:51:37.379Z,98343.16
2023-02-11T20:54:06.477Z,98326.63
2023-02-11T20:56:36.935Z,98350.38
2023-02-11T20:59:04.788Z,98362.28
2023-02-11T21:01:37.823Z,98369.84
2023-02-11T21:04:10.880Z,98358.22
2023-02-11T21:06:40.347Z,98360.84
2023-02-11T21:09:09.436Z,98375.22
2023-02-11T21:11:36.178Z,98352.19
2023-02-11T21:14:03.294Z,98388.97
2023-02-11T21:16:30.010Z,98371.19
2023-02-11T21:18:57.089Z,98370.34
2023-02-11T21:21:24.512Z,98362.84
2023-02-11T21:23:51.240Z,98383.03
2023-02-11T21:26:18.095Z,98387.91
2023-02-11T21:28:44.936Z,98370.66
2023-02-11T21:31:21.774Z,98366.38
2023-02-11T21:33:49.634Z,98363.56
2023-02-11T21:36:16.373Z,98383.59
2023-02-11T21:38:43.014Z,98393.06
2023-02-11T21:41:09.950Z,98403.03
2023-02-11T21:43:36.579Z,98407.34
2023-02-11T21:46:09.184Z,98415.16
2023-02-11T21:48:36.162Z,98381.72
2023-02-11T21:51:07.816Z,98421.09
2023-02-11T21:53:35.046Z,98407.28
2023-02-11T21:56:22.802Z,98410.81
2023-02-11T21:58:53.195Z,98422.66
2023-02-11T22:01:25.556Z,98426.22
2023-02-11T22:03:52.797Z,98437.25
2023-02-11T22:06:23.523Z,98436.97
2023-02-11T22:08:50.118Z,98428.63
2023-02-11T22:11:17.135Z,98438.56
2023-02-11T22:13:43.893Z,98408.00
2023-02-11T22:16:14.317Z,98431.22
2023-02-11T22:18:41.302Z,98443.19
2023-02-11T22:21:11.472Z,98440.81
2023-02-11T22:23:38.983Z,98399.00
2023-02-11T22:26:12.620Z,98448.56
2023-02-11T22:28:40.629Z,98447.00
2023-02-11T22:31:11.498Z,98412.31
2023-02-11T22:33:38.200Z,98440.50
2023-02-11T22:36:08.719Z,98450.75
2023-02-11T22:38:35.756Z,98396.84
2023-02-11T22:41:06.798Z,98434.50
2023-02-11T22:43:33.405Z,98469.69
2023-02-11T22:46:04.654Z,98457.81
2023-02-11T22:48:31.683Z,98468.81
2023-02-11T22:51:04.850Z,98464.16
2023-02-11T22:53:31.436Z,98475.00
2023-02-11T22:56:05.467Z,98472.28
2023-02-11T22:58:35.536Z,98481.44
2023-02-11T23:01:05.383Z,98484.47
2023-02-11T23:03:33.831Z,98491.78
2023-02-11T23:06:01.113Z,98493.91
2023-02-11T23:08:28.564Z,98489.09
2023-02-11T23:10:56.398Z,98470.09
2023-02-11T23:13:23.159Z,98486.91
2023-02-11T23:15:49.834Z,98492.28
2023-02-11T23:18:16.494Z,98487.97
2023-02-11T23:20:44.135Z,98489.28
2023-02-11T23:23:10.939Z,98491.97
2023-02-11T23:25:45.102Z,98470.88
2023-02-11T23:28:12.829Z,98491.72
2023-02-11T23:30:39.660Z,98475.19
2023-02-11T23:33:06.360Z,98487.66
2023-02-11T23:35:33.297Z,98498.50
2023-02-11T23:38:00.053Z,98478.75
2023-02-11T23:40:26.762Z,98472.16
2023-02-11T23:42:53.493Z,98483.84
2023-02-11T23:45:20.211Z,98467.63
2023-02-11T23:47:47.728Z,98473.56
2023-02-11T23:50:14.784Z,98501.41
2023-02-11T23:52:41.550Z,98496.53
2023-02-11T23:55:08.964Z,98510.88
2023-02-11T23:57:36.127Z,98485.47
